sensor_id;sensor_type;location;lat;lon;timestamp;temperature;humidity
11848;DHT22;5983;49.966;8.052;2022-08-16T00:01:20;19.60;99.90
11848;DHT22;5983;49.966;8.052;2022-08-16T00:03:48;19.60;99.90
11848;DHT22;5983;49.966;8.052;2022-08-16T00:06:16;19.60;99.90
11848;DHT22;5983;49.966;8.052;2022-08-16T00:08:43;19.60;99.90
11848;DHT22;5983;49.966;8.052;2022-08-16T00:11:10;19.50;99.90
11848;DHT22;5983;49.966;8.052;2022-08-16T00:13:37;19.50;99.90
11848;DHT22;5983;49.966;8.052;2022-08-16T00:16:05;19.50;99.90
11848;DHT22;5983;49.966;8.052;2022-08-16T00:18:32;19.30;99.90
11848;DHT22;5983;49.966;8.052;2022-08-16T00:20:59;19.30;99.90
11848;DHT22;5983;49.966;8.052;2022-08-16T00:23:27;19.30;99.90
11848;DHT22;5983;49.966;8.052;2022-08-16T00:25:55;19.30;99.90
11848;DHT22;5983;49.966;8.052;2022-08-16T00:28:21;19.30;99.90
11848;DHT22;5983;49.966;8.052;2022-08-16T00:30:49;19.30;99.90
11848;DHT22;5983;49.966;8.052;2022-08-16T00:33:16;19.20;99.90
11848;DHT22;5983;49.966;8.052;2022-08-16T00:35:42;19.20;99.90
11848;DHT22;5983;49.966;8.052;2022-08-16T00:38:10;19.20;99.90
11848;DHT22;5983;49.966;8.052;2022-08-16T00:40:42;19.20;99.90
11848;DHT22;5983;49.966;8.052;2022-08-16T00:43:14;19.20;99.90
11848;DHT22;5983;49.966;8.052;2022-08-16T00:45:49;19.10;99.90
11848;DHT22;5983;49.966;8.052;2022-08-16T00:48:20;19.00;99.90
11848;DHT22;5983;49.966;8.052;2022-08-16T00:50:47;18.90;99.90
11848;DHT22;5983;49.966;8.052;2022-08-16T00:53:16;18.90;99.90
11848;DHT22;5983;49.966;8.052;2022-08-16T00:55:47;18.90;99.90
11848;DHT22;5983;49.966;8.052;2022-08-16T00:58:19;18.90;99.90
11848;DHT22;5983;49.966;8.052;2022-08-16T01:00:48;18.90;99.90
11848;DHT22;5983;49.966;8.052;2022-08-16T01:03:18;18.90;99.90
11848;DHT22;5983;49.966;8.052;2022-08-16T01:05:47;19.00;99.90
11848;DHT22;5983;49.966;8.052;2022-08-16T01:08:19;18.90;99.90
11848;DHT22;5983;49.966;8.052;2022-08-16T01:10:50;19.00;99.90
11848;DHT22;5983;49.966;8.052;2022-08-16T01:13:21;19.00;99.90
11848;DHT22;5983;49.966;8.052;2022-08-16T01:15:53;19.00;99.90
11848;DHT22;5983;49.966;8.052;2022-08-16T01:18:24;18.90;99.90
11848;DHT22;5983;49.966;8.052;2022-08-16T01:21:04;18.80;99.90
11848;DHT22;5983;49.966;8.052;2022-08-16T01:24:06;18.70;99.90
11848;DHT22;5983;49.966;8.052;2022-08-16T01:26:40;18.70;99.90
11848;DHT22;5983;49.966;8.052;2022-08-16T01:29:13;18.70;99.90
11848;DHT22;5983;49.966;8.052;2022-08-16T01:31:43;18.80;99.90
11848;DHT22;5983;49.966;8.052;2022-08-16T01:34:11;18.80;99.90
11848;DHT22;5983;49.966;8.052;2022-08-16T01:36:40;18.80;99.90
11848;DHT22;5983;49.966;8.052;2022-08-16T01:39:11;18.80;99.90
11848;DHT22;5983;49.966;8.052;2022-08-16T01:41:41;18.80;99.90
11848;DHT22;5983;49.966;8.052;2022-08-16T01:44:09;18.80;99.90
11848;DHT22;5983;49.966;8.052;2022-08-16T01:46:39;18.70;99.90
11848;DHT22;5983;49.966;8.052;2022-08-16T01:49:10;18.60;99.90
11848;DHT22;5983;49.966;8.052;2022-08-16T01:51:41;18.50;99.90
11848;DHT22;5983;49.966;8.052;2022-08-16T01:54:11;18.50;99.90
11848;DHT22;5983;49.966;8.052;2022-08-16T01:56:39;18.40;99.90
11848;DHT22;5983;49.966;8.052;2022-08-16T01:59:11;18.40;99.90
11848;DHT22;5983;49.966;8.052;2022-08-16T02:01:39;18.50;99.90
11848;DHT22;5983;49.966;8.052;2022-08-16T02:04:07;18.50;99.90
11848;DHT22;5983;49.966;8.052;2022-08-16T02:06:34;18.50;99.90
11848;DHT22;5983;49.966;8.052;2022-08-16T02:09:03;18.50;99.90
11848;DHT22;5983;49.966;8.052;2022-08-16T02:11:36;18.50;99.90
11848;DHT22;5983;49.966;8.052;2022-08-16T02:14:04;18.50;99.90
11848;DHT22;5983;49.966;8.052;2022-08-16T02:16:32;18.50;99.90
11848;DHT22;5983;49.966;8.052;2022-08-16T02:18:59;18.40;99.90
11848;DHT22;5983;49.966;8.052;2022-08-16T02:21:26;18.40;99.90
11848;DHT22;5983;49.966;8.052;2022-08-16T02:23:54;18.30;99.90
11848;DHT22;5983;49.966;8.052;2022-08-16T02:26:21;18.30;99.90
11848;DHT22;5983;49.966;8.052;2022-08-16T02:28:51;18.30;99.90
11848;DHT22;5983;49.966;8.052;2022-08-16T02:31:18;18.40;99.90
11848;DHT22;5983;49.966;8.052;2022-08-16T02:33:45;18.30;99.90
11848;DHT22;5983;49.966;8.052;2022-08-16T02:36:13;18.30;99.90
11848;DHT22;5983;49.966;8.052;2022-08-16T02:38:41;18.20;99.90
11848;DHT22;5983;49.966;8.052;2022-08-16T02:41:08;18.20;99.90
11848;DHT22;5983;49.966;8.052;2022-08-16T02:43:36;18.20;99.90
11848;DHT22;5983;49.966;8.052;2022-08-16T02:46:06;18.20;99.90
11848;DHT22;5983;49.966;8.052;2022-08-16T02:48:34;18.10;99.90
11848;DHT22;5983;49.966;8.052;2022-08-16T02:51:04;18.10;99.90
11848;DHT22;5983;49.966;8.052;2022-08-16T02:53:33;18.00;99.90
11848;DHT22;5983;49.966;8.052;2022-08-16T02:56:02;18.00;99.90
11848;DHT22;5983;49.966;8.052;2022-08-16T02:58:30;18.10;99.90
11848;DHT22;5983;49.966;8.052;2022-08-16T03:00:58;18.10;99.90
11848;DHT22;5983;49.966;8.052;2022-08-16T03:03:27;18.10;99.90
11848;DHT22;5983;49.966;8.052;2022-08-16T03:05:54;18.00;99.90
11848;DHT22;5983;49.966;8.052;2022-08-16T03:08:21;17.90;99.90
11848;DHT22;5983;49.966;8.052;2022-08-16T03:10:49;17.90;99.90
11848;DHT22;5983;49.966;8.052;2022-08-16T03:13:17;17.80;99.90
11848;DHT22;5983;49.966;8.052;2022-08-16T03:15:44;17.70;99.90
11848;DHT22;5983;49.966;8.052;2022-08-16T03:18:13;17.70;99.90
11848;DHT22;5983;49.966;8.052;2022-08-16T03:20:41;17.60;99.90
11848;DHT22;5983;49.966;8.052;2022-08-16T03:23:08;17.60;99.90
11848;DHT22;5983;49.966;8.052;2022-08-16T03:25:36;17.60;99.90
11848;DHT22;5983;49.966;8.052;2022-08-16T03:28:05;17.60;99.90
11848;DHT22;5983;49.966;8.052;2022-08-16T03:30:34;17.60;99.90
11848;DHT22;5983;49.966;8.052;2022-08-16T03:33:02;17.50;99.90
11848;DHT22;5983;49.966;8.052;2022-08-16T03:35:31;17.50;99.90
11848;DHT22;5983;49.966;8.052;2022-08-16T03:38:03;17.50;99.90
11848;DHT22;5983;49.966;8.052;2022-08-16T03:40:35;17.50;99.90
11848;DHT22;5983;49.966;8.052;2022-08-16T03:43:05;17.40;99.90
11848;DHT22;5983;49.966;8.052;2022-08-16T03:45:34;17.30;99.90
11848;DHT22;5983;49.966;8.052;2022-08-16T03:48:03;17.30;99.90
11848;DHT22;5983;49.966;8.052;2022-08-16T03:50:32;17.40;99.90
11848;DHT22;5983;49.966;8.052;2022-08-16T03:53:01;17.50;99.90
11848;DHT22;5983;49.966;8.052;2022-08-16T03:55:29;17.40;99.90
11848;DHT22;5983;49.966;8.052;2022-08-16T03:57:56;17.40;99.90
11848;DHT22;5983;49.966;8.052;2022-08-16T04:00:26;17.40;99.90
11848;DHT22;5983;49.966;8.052;2022-08-16T04:02:56;17.40;99.90
11848;DHT22;5983;49.966;8.052;2022-08-16T04:05:27;17.40;99.90
11848;DHT22;5983;49.966;8.052;2022-08-16T04:07:54;17.40;99.90
11848;DHT22;5983;49.966;8.052;2022-08-16T04:10:23;17.50;99.90
11848;DHT22;5983;49.966;8.052;2022-08-16T04:12:49;17.40;99.90
11848;DHT22;5983;49.966;8.052;2022-08-16T04:15:16;17.40;99.90
11848;DHT22;5983;49.966;8.052;2022-08-16T04:17:43;17.40;99.90
11848;DHT22;5983;49.966;8.052;2022-08-16T04:20:12;17.20;99.90
11848;DHT22;5983;49.966;8.052;2022-08-16T04:22:42;17.30;99.90
11848;DHT22;5983;49.966;8.052;2022-08-16T04:25:10;17.20;99.90
11848;DHT22;5983;49.966;8.052;2022-08-16T04:27:39;17.20;99.90
11848;DHT22;5983;49.966;8.052;2022-08-16T04:30:09;17.30;99.90
11848;DHT22;5983;49.966;8.052;2022-08-16T04:32:40;17.30;99.90
11848;DHT22;5983;49.966;8.052;2022-08-16T04:35:10;17.30;99.90
11848;DHT22;5983;49.966;8.052;2022-08-16T04:37:40;17.30;99.90
11848;DHT22;5983;49.966;8.052;2022-08-16T04:40:08;17.40;99.90
11848;DHT22;5983;49.966;8.052;2022-08-16T04:42:36;17.40;99.90
11848;DHT22;5983;49.966;8.052;2022-08-16T04:45:07;17.30;99.90
11848;DHT22;5983;49.966;8.052;2022-08-16T04:47:36;17.30;99.90
11848;DHT22;5983;49.966;8.052;2022-08-16T04:50:04;17.30;99.90
11848;DHT22;5983;49.966;8.052;2022-08-16T04:52:32;17.40;99.90
11848;DHT22;5983;49.966;8.052;2022-08-16T04:54:58;17.30;99.90
11848;DHT22;5983;49.966;8.052;2022-08-16T04:57:25;17.30;99.90
11848;DHT22;5983;49.966;8.052;2022-08-16T04:59:52;17.40;99.90
11848;DHT22;5983;49.966;8.052;2022-08-16T05:02:21;17.40;99.90
11848;DHT22;5983;49.966;8.052;2022-08-16T05:04:47;17.50;99.90
11848;DHT22;5983;49.966;8.052;2022-08-16T05:07:14;17.50;99.90
11848;DHT22;5983;49.966;8.052;2022-08-16T05:09:41;17.60;99.90
11848;DHT22;5983;49.966;8.052;2022-08-16T05:12:08;17.60;99.90
11848;DHT22;5983;49.966;8.052;2022-08-16T05:14:35;17.60;99.90
11848;DHT22;5983;49.966;8.052;2022-08-16T05:17:02;17.70;99.90
11848;DHT22;5983;49.966;8.052;2022-08-16T05:19:30;17.80;99.90
11848;DHT22;5983;49.966;8.052;2022-08-16T05:21:57;17.80;99.90
11848;DHT22;5983;49.966;8.052;2022-08-16T05:24:24;17.90;99.90
11848;DHT22;5983;49.966;8.052;2022-08-16T05:26:51;18.10;99.90
11848;DHT22;5983;49.966;8.052;2022-08-16T05:29:18;18.10;99.90
11848;DHT22;5983;49.966;8.052;2022-08-16T05:31:46;18.10;99.90
11848;DHT22;5983;49.966;8.052;2022-08-16T05:34:13;18.00;99.90
11848;DHT22;5983;49.966;8.052;2022-08-16T05:36:43;18.10;99.90
11848;DHT22;5983;49.966;8.052;2022-08-16T05:39:09;18.30;99.90
11848;DHT22;5983;49.966;8.052;2022-08-16T05:41:37;18.30;99.90
11848;DHT22;5983;49.966;8.052;2022-08-16T05:44:04;18.40;99.90
11848;DHT22;5983;49.966;8.052;2022-08-16T05:46:31;18.50;99.90
11848;DHT22;5983;49.966;8.052;2022-08-16T05:48:59;18.50;99.90
11848;DHT22;5983;49.966;8.052;2022-08-16T05:51:27;18.60;99.90
11848;DHT22;5983;49.966;8.052;2022-08-16T05:53:55;18.80;99.90
11848;DHT22;5983;49.966;8.052;2022-08-16T05:56:22;19.00;99.90
11848;DHT22;5983;49.966;8.052;2022-08-16T05:58:49;19.10;99.90
11848;DHT22;5983;49.966;8.052;2022-08-16T06:01:16;19.30;99.90
11848;DHT22;5983;49.966;8.052;2022-08-16T06:03:43;19.40;99.90
11848;DHT22;5983;49.966;8.052;2022-08-16T06:06:10;19.60;99.90
11848;DHT22;5983;49.966;8.052;2022-08-16T06:08:37;19.70;99.90
11848;DHT22;5983;49.966;8.052;2022-08-16T06:11:06;19.90;99.90
11848;DHT22;5983;49.966;8.052;2022-08-16T06:13:34;20.00;99.90
11848;DHT22;5983;49.966;8.052;2022-08-16T06:16:02;20.20;99.90
11848;DHT22;5983;49.966;8.052;2022-08-16T06:18:30;20.30;99.90
11848;DHT22;5983;49.966;8.052;2022-08-16T06:20:57;20.40;99.90
11848;DHT22;5983;49.966;8.052;2022-08-16T06:23:24;20.50;99.90
11848;DHT22;5983;49.966;8.052;2022-08-16T06:25:51;20.60;99.90
11848;DHT22;5983;49.966;8.052;2022-08-16T06:28:20;20.70;99.90
11848;DHT22;5983;49.966;8.052;2022-08-16T06:30:47;20.80;99.90
11848;DHT22;5983;49.966;8.052;2022-08-16T06:33:15;20.90;99.90
11848;DHT22;5983;49.966;8.052;2022-08-16T06:35:43;20.90;99.90
11848;DHT22;5983;49.966;8.052;2022-08-16T06:38:11;21.10;99.90
11848;DHT22;5983;49.966;8.052;2022-08-16T06:40:38;21.20;99.90
11848;DHT22;5983;49.966;8.052;2022-08-16T06:43:05;21.30;99.90
11848;DHT22;5983;49.966;8.052;2022-08-16T06:45:34;21.50;99.90
11848;DHT22;5983;49.966;8.052;2022-08-16T06:48:02;21.60;99.90
11848;DHT22;5983;49.966;8.052;2022-08-16T06:50:30;21.70;99.90
11848;DHT22;5983;49.966;8.052;2022-08-16T06:52:57;21.80;99.90
11848;DHT22;5983;49.966;8.052;2022-08-16T06:55:26;22.00;99.90
11848;DHT22;5983;49.966;8.052;2022-08-16T06:57:53;22.20;99.90
11848;DHT22;5983;49.966;8.052;2022-08-16T07:00:22;22.30;99.90
11848;DHT22;5983;49.966;8.052;2022-08-16T07:02:51;22.40;99.90
11848;DHT22;5983;49.966;8.052;2022-08-16T07:05:18;22.50;99.90
11848;DHT22;5983;49.966;8.052;2022-08-16T07:07:47;22.60;99.90
11848;DHT22;5983;49.966;8.052;2022-08-16T07:10:17;22.70;99.90
11848;DHT22;5983;49.966;8.052;2022-08-16T07:12:45;22.80;99.90
11848;DHT22;5983;49.966;8.052;2022-08-16T07:15:15;23.00;99.90
11848;DHT22;5983;49.966;8.052;2022-08-16T07:17:43;23.20;99.90
11848;DHT22;5983;49.966;8.052;2022-08-16T07:20:12;23.30;99.90
11848;DHT22;5983;49.966;8.052;2022-08-16T07:22:40;23.50;99.90
11848;DHT22;5983;49.966;8.052;2022-08-16T07:25:08;23.60;99.90
11848;DHT22;5983;49.966;8.052;2022-08-16T07:27:38;23.80;99.90
11848;DHT22;5983;49.966;8.052;2022-08-16T07:30:08;23.90;99.90
11848;DHT22;5983;49.966;8.052;2022-08-16T07:32:38;24.00;99.90
11848;DHT22;5983;49.966;8.052;2022-08-16T07:35:06;24.10;99.90
11848;DHT22;5983;49.966;8.052;2022-08-16T07:37:35;24.10;99.90
11848;DHT22;5983;49.966;8.052;2022-08-16T07:40:02;24.20;99.90
11848;DHT22;5983;49.966;8.052;2022-08-16T07:42:30;24.30;99.90
11848;DHT22;5983;49.966;8.052;2022-08-16T07:44:57;24.50;99.90
11848;DHT22;5983;49.966;8.052;2022-08-16T07:47:24;24.70;99.90
11848;DHT22;5983;49.966;8.052;2022-08-16T07:49:51;24.80;99.90
11848;DHT22;5983;49.966;8.052;2022-08-16T07:52:18;25.00;99.90
11848;DHT22;5983;49.966;8.052;2022-08-16T07:54:46;25.10;99.90
11848;DHT22;5983;49.966;8.052;2022-08-16T07:57:13;25.30;99.90
11848;DHT22;5983;49.966;8.052;2022-08-16T07:59:45;25.50;99.90
11848;DHT22;5983;49.966;8.052;2022-08-16T08:02:12;25.60;99.90
11848;DHT22;5983;49.966;8.052;2022-08-16T08:04:39;25.80;99.90
11848;DHT22;5983;49.966;8.052;2022-08-16T08:07:07;25.90;99.90
11848;DHT22;5983;49.966;8.052;2022-08-16T08:09:36;26.00;99.90
11848;DHT22;5983;49.966;8.052;2022-08-16T08:12:05;26.10;99.90
11848;DHT22;5983;49.966;8.052;2022-08-16T08:14:33;26.10;99.90
11848;DHT22;5983;49.966;8.052;2022-08-16T08:17:00;26.20;99.90
11848;DHT22;5983;49.966;8.052;2022-08-16T08:19:29;26.30;99.90
11848;DHT22;5983;49.966;8.052;2022-08-16T08:21:56;26.40;99.90
11848;DHT22;5983;49.966;8.052;2022-08-16T08:24:23;26.60;99.90
11848;DHT22;5983;49.966;8.052;2022-08-16T08:26:50;26.70;99.90
11848;DHT22;5983;49.966;8.052;2022-08-16T08:29:18;26.90;99.90
11848;DHT22;5983;49.966;8.052;2022-08-16T08:31:45;27.00;99.90
11848;DHT22;5983;49.966;8.052;2022-08-16T08:34:12;26.90;99.90
11848;DHT22;5983;49.966;8.052;2022-08-16T08:36:39;26.90;99.90
11848;DHT22;5983;49.966;8.052;2022-08-16T08:39:06;26.70;99.90
11848;DHT22;5983;49.966;8.052;2022-08-16T08:41:33;26.70;99.90
11848;DHT22;5983;49.966;8.052;2022-08-16T08:44:00;26.80;99.90
11848;DHT22;5983;49.966;8.052;2022-08-16T08:46:30;26.80;99.90
11848;DHT22;5983;49.966;8.052;2022-08-16T08:48:57;26.90;99.90
11848;DHT22;5983;49.966;8.052;2022-08-16T08:51:24;27.00;99.90
11848;DHT22;5983;49.966;8.052;2022-08-16T08:53:51;27.10;99.90
11848;DHT22;5983;49.966;8.052;2022-08-16T08:56:19;27.30;99.90
11848;DHT22;5983;49.966;8.052;2022-08-16T08:58:46;27.50;99.90
11848;DHT22;5983;49.966;8.052;2022-08-16T09:01:13;27.60;99.90
11848;DHT22;5983;49.966;8.052;2022-08-16T09:03:43;27.40;99.90
11848;DHT22;5983;49.966;8.052;2022-08-16T09:06:10;27.20;99.90
11848;DHT22;5983;49.966;8.052;2022-08-16T09:08:37;27.10;99.90
11848;DHT22;5983;49.966;8.052;2022-08-16T09:11:04;27.00;99.90
11848;DHT22;5983;49.966;8.052;2022-08-16T09:13:31;27.10;99.90
11848;DHT22;5983;49.966;8.052;2022-08-16T09:15:58;27.20;99.90
11848;DHT22;5983;49.966;8.052;2022-08-16T09:18:26;27.30;99.90
11848;DHT22;5983;49.966;8.052;2022-08-16T09:20:55;27.50;99.90
11848;DHT22;5983;49.966;8.052;2022-08-16T09:23:23;27.80;99.90
11848;DHT22;5983;49.966;8.052;2022-08-16T09:25:51;28.00;99.90
11848;DHT22;5983;49.966;8.052;2022-08-16T09:28:18;28.00;99.90
11848;DHT22;5983;49.966;8.052;2022-08-16T09:30:45;28.10;99.90
11848;DHT22;5983;49.966;8.052;2022-08-16T09:33:15;28.20;99.90
11848;DHT22;5983;49.966;8.052;2022-08-16T09:35:44;28.30;99.90
11848;DHT22;5983;49.966;8.052;2022-08-16T09:38:13;28.50;99.50
11848;DHT22;5983;49.966;8.052;2022-08-16T09:40:41;28.60;98.50
11848;DHT22;5983;49.966;8.052;2022-08-16T09:43:17;28.60;98.30
11848;DHT22;5983;49.966;8.052;2022-08-16T09:45:46;28.60;97.80
11848;DHT22;5983;49.966;8.052;2022-08-16T09:48:14;28.70;97.10
11848;DHT22;5983;49.966;8.052;2022-08-16T09:50:43;28.50;97.00
11848;DHT22;5983;49.966;8.052;2022-08-16T09:53:13;28.40;97.10
11848;DHT22;5983;49.966;8.052;2022-08-16T09:55:42;28.40;97.10
11848;DHT22;5983;49.966;8.052;2022-08-16T09:58:11;28.60;97.40
11848;DHT22;5983;49.966;8.052;2022-08-16T10:00:39;28.70;97.00
11848;DHT22;5983;49.966;8.052;2022-08-16T10:03:06;28.90;96.80
11848;DHT22;5983;49.966;8.052;2022-08-16T10:05:33;29.10;96.70
11848;DHT22;5983;49.966;8.052;2022-08-16T10:08:02;29.40;96.40
11848;DHT22;5983;49.966;8.052;2022-08-16T10:10:31;29.50;95.60
11848;DHT22;5983;49.966;8.052;2022-08-16T10:12:58;29.50;94.50
11848;DHT22;5983;49.966;8.052;2022-08-16T10:15:39;29.50;94.70
11848;DHT22;5983;49.966;8.052;2022-08-16T10:18:09;29.50;94.50
11848;DHT22;5983;49.966;8.052;2022-08-16T10:20:39;29.50;94.60
11848;DHT22;5983;49.966;8.052;2022-08-16T10:23:10;29.50;94.70
11848;DHT22;5983;49.966;8.052;2022-08-16T10:25:41;29.60;94.70
11848;DHT22;5983;49.966;8.052;2022-08-16T10:28:11;29.80;94.10
11848;DHT22;5983;49.966;8.052;2022-08-16T10:30:39;29.70;91.90
11848;DHT22;5983;49.966;8.052;2022-08-16T10:33:08;29.70;91.90
11848;DHT22;5983;49.966;8.052;2022-08-16T10:35:35;29.90;92.40
11848;DHT22;5983;49.966;8.052;2022-08-16T10:38:02;30.10;92.20
11848;DHT22;5983;49.966;8.052;2022-08-16T10:40:30;30.20;91.80
11848;DHT22;5983;49.966;8.052;2022-08-16T10:42:58;30.30;91.40
11848;DHT22;5983;49.966;8.052;2022-08-16T10:45:27;30.50;91.10
11848;DHT22;5983;49.966;8.052;2022-08-16T10:47:55;30.70;90.70
11848;DHT22;5983;49.966;8.052;2022-08-16T10:50:24;30.70;88.10
11848;DHT22;5983;49.966;8.052;2022-08-16T10:52:52;30.30;86.00
11848;DHT22;5983;49.966;8.052;2022-08-16T10:55:20;30.00;86.80
11848;DHT22;5983;49.966;8.052;2022-08-16T10:57:48;29.70;88.50
11848;DHT22;5983;49.966;8.052;2022-08-16T11:00:17;29.50;89.60
11848;DHT22;5983;49.966;8.052;2022-08-16T11:02:44;29.30;90.00
11848;DHT22;5983;49.966;8.052;2022-08-16T11:05:14;29.20;90.30
11848;DHT22;5983;49.966;8.052;2022-08-16T11:07:47;29.20;90.40
11848;DHT22;5983;49.966;8.052;2022-08-16T11:10:18;29.00;89.60
11848;DHT22;5983;49.966;8.052;2022-08-16T11:12:48;29.00;90.00
11848;DHT22;5983;49.966;8.052;2022-08-16T11:15:16;28.80;90.00
11848;DHT22;5983;49.966;8.052;2022-08-16T11:17:45;28.90;90.10
11848;DHT22;5983;49.966;8.052;2022-08-16T11:20:13;29.10;90.40
11848;DHT22;5983;49.966;8.052;2022-08-16T11:22:42;29.50;90.30
11848;DHT22;5983;49.966;8.052;2022-08-16T11:25:09;29.70;88.80
11848;DHT22;5983;49.966;8.052;2022-08-16T11:27:37;29.70;87.50
11848;DHT22;5983;49.966;8.052;2022-08-16T11:30:06;29.70;87.50
11848;DHT22;5983;49.966;8.052;2022-08-16T11:32:36;29.70;87.40
11848;DHT22;5983;49.966;8.052;2022-08-16T11:35:10;29.80;87.00
11848;DHT22;5983;49.966;8.052;2022-08-16T11:37:39;29.80;86.30
11848;DHT22;5983;49.966;8.052;2022-08-16T11:40:09;29.80;86.40
11848;DHT22;5983;49.966;8.052;2022-08-16T11:42:36;29.90;85.90
11848;DHT22;5983;49.966;8.052;2022-08-16T11:45:03;30.00;85.60
11848;DHT22;5983;49.966;8.052;2022-08-16T11:47:31;29.90;85.30
11848;DHT22;5983;49.966;8.052;2022-08-16T11:49:59;29.80;85.10
11848;DHT22;5983;49.966;8.052;2022-08-16T11:52:26;30.00;85.20
11848;DHT22;5983;49.966;8.052;2022-08-16T11:54:53;30.20;85.30
11848;DHT22;5983;49.966;8.052;2022-08-16T11:57:20;30.30;84.80
11848;DHT22;5983;49.966;8.052;2022-08-16T11:59:46;30.40;84.50
11848;DHT22;5983;49.966;8.052;2022-08-16T12:02:13;30.50;84.00
11848;DHT22;5983;49.966;8.052;2022-08-16T12:04:40;30.70;83.50
11848;DHT22;5983;49.966;8.052;2022-08-16T12:07:11;30.90;82.80
11848;DHT22;5983;49.966;8.052;2022-08-16T12:09:38;31.10;81.50
11848;DHT22;5983;49.966;8.052;2022-08-16T12:12:06;31.30;81.00
11848;DHT22;5983;49.966;8.052;2022-08-16T12:14:35;31.30;79.00
11848;DHT22;5983;49.966;8.052;2022-08-16T12:17:03;31.30;78.60
11848;DHT22;5983;49.966;8.052;2022-08-16T12:19:31;31.10;78.50
11848;DHT22;5983;49.966;8.052;2022-08-16T12:21:59;30.90;78.30
11848;DHT22;5983;49.966;8.052;2022-08-16T12:24:27;30.60;78.10
11848;DHT22;5983;49.966;8.052;2022-08-16T12:26:55;30.30;79.10
11848;DHT22;5983;49.966;8.052;2022-08-16T12:29:22;30.00;79.00
11848;DHT22;5983;49.966;8.052;2022-08-16T12:31:49;29.80;79.50
11848;DHT22;5983;49.966;8.052;2022-08-16T12:34:17;29.70;79.50
11848;DHT22;5983;49.966;8.052;2022-08-16T12:36:45;29.60;79.50
11848;DHT22;5983;49.966;8.052;2022-08-16T12:39:13;29.70;79.90
11848;DHT22;5983;49.966;8.052;2022-08-16T12:41:43;29.80;80.20
11848;DHT22;5983;49.966;8.052;2022-08-16T12:44:11;29.80;79.60
11848;DHT22;5983;49.966;8.052;2022-08-16T12:46:39;29.90;79.90
11848;DHT22;5983;49.966;8.052;2022-08-16T12:49:07;29.80;80.30
11848;DHT22;5983;49.966;8.052;2022-08-16T12:51:38;29.80;80.50
11848;DHT22;5983;49.966;8.052;2022-08-16T12:54:08;29.80;80.50
11848;DHT22;5983;49.966;8.052;2022-08-16T12:56:37;29.70;79.50
11848;DHT22;5983;49.966;8.052;2022-08-16T12:59:09;29.60;78.00
11848;DHT22;5983;49.966;8.052;2022-08-16T13:01:37;29.70;78.00
11848;DHT22;5983;49.966;8.052;2022-08-16T13:04:06;29.80;77.90
11848;DHT22;5983;49.966;8.052;2022-08-16T13:06:35;30.10;77.40
11848;DHT22;5983;49.966;8.052;2022-08-16T13:09:05;30.30;77.50
11848;DHT22;5983;49.966;8.052;2022-08-16T13:11:52;30.50;77.60
11848;DHT22;5983;49.966;8.052;2022-08-16T13:14:28;30.70;75.40
11848;DHT22;5983;49.966;8.052;2022-08-16T13:16:59;30.80;74.50
11848;DHT22;5983;49.966;8.052;2022-08-16T13:19:28;30.90;74.20
11848;DHT22;5983;49.966;8.052;2022-08-16T13:21:55;30.90;73.10
11848;DHT22;5983;49.966;8.052;2022-08-16T13:24:22;31.10;73.50
11848;DHT22;5983;49.966;8.052;2022-08-16T13:26:50;31.10;72.30
11848;DHT22;5983;49.966;8.052;2022-08-16T13:29:17;31.20;72.30
11848;DHT22;5983;49.966;8.052;2022-08-16T13:31:45;31.30;72.30
11848;DHT22;5983;49.966;8.052;2022-08-16T13:34:12;31.30;71.40
11848;DHT22;5983;49.966;8.052;2022-08-16T13:36:40;31.20;70.00
11848;DHT22;5983;49.966;8.052;2022-08-16T13:39:07;31.00;69.40
11848;DHT22;5983;49.966;8.052;2022-08-16T13:41:35;30.70;69.60
11848;DHT22;5983;49.966;8.052;2022-08-16T13:44:03;30.40;70.10
11848;DHT22;5983;49.966;8.052;2022-08-16T13:46:31;30.30;70.90
11848;DHT22;5983;49.966;8.052;2022-08-16T13:49:00;30.10;72.50
11848;DHT22;5983;49.966;8.052;2022-08-16T13:51:27;29.90;73.50
11848;DHT22;5983;49.966;8.052;2022-08-16T13:53:57;29.90;74.70
11848;DHT22;5983;49.966;8.052;2022-08-16T13:56:28;30.00;73.40
11848;DHT22;5983;49.966;8.052;2022-08-16T13:58:55;30.10;73.20
11848;DHT22;5983;49.966;8.052;2022-08-16T14:01:22;30.20;72.40
11848;DHT22;5983;49.966;8.052;2022-08-16T14:03:49;30.20;71.20
11848;DHT22;5983;49.966;8.052;2022-08-16T14:06:17;30.20;71.30
11848;DHT22;5983;49.966;8.052;2022-08-16T14:08:44;30.20;70.80
11848;DHT22;5983;49.966;8.052;2022-08-16T14:11:13;30.20;70.10
11848;DHT22;5983;49.966;8.052;2022-08-16T14:13:42;30.20;69.80
11848;DHT22;5983;49.966;8.052;2022-08-16T14:16:10;30.20;69.90
11848;DHT22;5983;49.966;8.052;2022-08-16T14:18:38;30.20;70.40
11848;DHT22;5983;49.966;8.052;2022-08-16T14:21:05;30.30;70.70
11848;DHT22;5983;49.966;8.052;2022-08-16T14:23:34;30.30;70.50
11848;DHT22;5983;49.966;8.052;2022-08-16T14:26:01;30.30;69.50
11848;DHT22;5983;49.966;8.052;2022-08-16T14:28:28;30.30;69.30
11848;DHT22;5983;49.966;8.052;2022-08-16T14:30:55;30.30;69.20
11848;DHT22;5983;49.966;8.052;2022-08-16T14:33:22;30.30;69.70
11848;DHT22;5983;49.966;8.052;2022-08-16T14:35:49;30.20;68.90
11848;DHT22;5983;49.966;8.052;2022-08-16T14:38:17;30.20;69.00
11848;DHT22;5983;49.966;8.052;2022-08-16T14:40:47;30.10;69.10
11848;DHT22;5983;49.966;8.052;2022-08-16T14:43:14;30.10;69.80
11848;DHT22;5983;49.966;8.052;2022-08-16T14:45:41;30.00;70.20
11848;DHT22;5983;49.966;8.052;2022-08-16T14:48:08;29.90;70.30
11848;DHT22;5983;49.966;8.052;2022-08-16T14:50:35;29.90;70.10
11848;DHT22;5983;49.966;8.052;2022-08-16T14:53:05;29.70;69.70
11848;DHT22;5983;49.966;8.052;2022-08-16T14:55:35;29.60;70.20
11848;DHT22;5983;49.966;8.052;2022-08-16T14:58:04;29.50;71.60
11848;DHT22;5983;49.966;8.052;2022-08-16T15:00:33;29.40;71.70
11848;DHT22;5983;49.966;8.052;2022-08-16T15:03:03;29.40;72.50
11848;DHT22;5983;49.966;8.052;2022-08-16T15:05:33;29.40;73.20
11848;DHT22;5983;49.966;8.052;2022-08-16T15:07:59;29.50;73.40
11848;DHT22;5983;49.966;8.052;2022-08-16T15:10:27;29.40;73.00
11848;DHT22;5983;49.966;8.052;2022-08-16T15:12:54;29.40;72.70
11848;DHT22;5983;49.966;8.052;2022-08-16T15:15:25;29.40;72.80
11848;DHT22;5983;49.966;8.052;2022-08-16T15:17:54;29.30;72.40
11848;DHT22;5983;49.966;8.052;2022-08-16T15:20:22;29.30;72.60
11848;DHT22;5983;49.966;8.052;2022-08-16T15:22:50;29.30;72.30
11848;DHT22;5983;49.966;8.052;2022-08-16T15:25:19;29.30;71.70
11848;DHT22;5983;49.966;8.052;2022-08-16T15:27:49;29.30;71.80
11848;DHT22;5983;49.966;8.052;2022-08-16T15:30:18;29.30;72.00
11848;DHT22;5983;49.966;8.052;2022-08-16T15:32:48;29.30;71.80
11848;DHT22;5983;49.966;8.052;2022-08-16T15:35:16;29.20;72.10
11848;DHT22;5983;49.966;8.052;2022-08-16T15:37:43;29.30;72.50
11848;DHT22;5983;49.966;8.052;2022-08-16T15:40:13;29.30;71.80
11848;DHT22;5983;49.966;8.052;2022-08-16T15:42:41;29.20;71.70
11848;DHT22;5983;49.966;8.052;2022-08-16T15:45:09;29.20;72.00
11848;DHT22;5983;49.966;8.052;2022-08-16T15:47:37;29.20;72.80
11848;DHT22;5983;49.966;8.052;2022-08-16T15:50:06;29.20;73.60
11848;DHT22;5983;49.966;8.052;2022-08-16T15:52:35;29.10;73.70